Time;durP1;ratioP1;P1;durP2;ratioP2;P2;SDS_P1;SDS_P2;PMS_P1;PMS_P2;Temp;Humidity;BMP_temperature;BMP_pressure;BME280_temperature;BME280_humidity;BME280_pressure;Samples;Min_cycle;Max_cycle;Signal;HPM_P1;HPM_P2
2021/10/07 00:00:07;;;;;;;;;;;23.50;44.20;;;;;;1626334;72;675;-71
2021/10/07 00:02:09;;;;;;;;;;;23.60;44.20;;;;;;1632760;72;700;-73
2021/10/07 00:04:11;;;;;;;;;;;23.60;44.20;;;;;;1618041;72;720;-71
2021/10/07 00:06:13;;;;;;;;;;;23.50;44.30;;;;;;1630009;72;1136;-71
2021/10/07 00:08:15;;;;;;;;;;;23.50;44.30;;;;;;1625066;72;717;-70
2021/10/07 00:10:16;;;;;;;;;;;23.50;44.30;;;;;;1619355;72;783;-70
2021/10/07 00:12:18;;;;;;;;;;;23.50;44.30;;;;;;1624443;72;1924;-69
2021/10/07 00:14:20;;;;;;;;;;;23.50;44.30;;;;;;1625165;72;791;-71
2021/10/07 00:16:22;;;;;;;;;;;23.50;44.30;;;;;;1629309;72;1100;-70
2021/10/07 00:18:24;;;;;;;;;;;23.50;44.30;;;;;;1627734;72;681;-71
2021/10/07 00:20:26;;;;;;;;;;;23.50;44.30;;;;;;1620760;72;714;-71
2021/10/07 00:22:28;;;;;;;;;;;23.60;44.30;;;;;;1624371;72;654;-70
2021/10/07 00:24:30;;;;;;;;;;;23.50;44.30;;;;;;1625343;72;695;-72
2021/10/07 00:26:31;;;;;;;;;;;23.50;44.30;;;;;;1623553;72;1253;-71
2021/10/07 00:28:33;;;;;;;;;;;23.50;44.30;;;;;;1625794;72;729;-70
2021/10/07 00:30:37;;;;;;;;;;;23.50;44.30;;;;;;1631250;72;761;-70
2021/10/07 00:32:47;;;;;;;;;;;23.50;44.30;;;;;;1622908;72;1916;-71
2021/10/07 00:37:02;;;;;;;;;;;23.50;44.40;;;;;;1622566;72;1099;-73
2021/10/07 00:39:05;;;;;;;;;;;23.50;44.30;;;;;;1622433;72;1076;-72
2021/10/07 00:41:07;;;;;;;;;;;23.50;44.40;;;;;;1618921;72;756;-70
2021/10/07 00:43:09;;;;;;;;;;;23.50;44.30;;;;;;1631726;72;756;-71
2021/10/07 00:45:13;;;;;;;;;;;23.50;44.30;;;;;;1627018;72;690;-72
2021/10/07 00:47:15;;;;;;;;;;;23.50;44.30;;;;;;1631024;72;1586;-71
2021/10/07 00:49:17;;;;;;;;;;;23.50;44.30;;;;;;1631716;72;715;-70
2021/10/07 00:51:19;;;;;;;;;;;23.50;44.30;;;;;;1623776;72;1916;-70
2021/10/07 00:53:21;;;;;;;;;;;23.50;44.30;;;;;;1619674;72;721;-71
2021/10/07 00:55:22;;;;;;;;;;;23.50;44.40;;;;;;1626851;72;719;-72
2021/10/07 00:57:24;;;;;;;;;;;23.50;44.30;;;;;;1622581;72;1163;-71
2021/10/07 00:59:26;;;;;;;;;;;23.50;44.40;;;;;;1616341;72;698;-71
2021/10/07 01:01:28;;;;;;;;;;;23.50;44.40;;;;;;1625122;72;656;-70
2021/10/07 01:03:33;;;;;;;;;;;23.50;44.40;;;;;;1630497;72;699;-72
2021/10/07 01:05:34;;;;;;;;;;;23.50;44.40;;;;;;1619709;72;1165;-70
2021/10/07 01:07:35;;;;;;;;;;;23.50;44.40;;;;;;1584676;72;2091;-72
2021/10/07 01:09:42;;;;;;;;;;;23.50;44.40;;;;;;1577463;75;749;-70
2021/10/07 01:11:41;;;;;;;;;;;23.50;44.40;;;;;;1575465;75;1918;-69
2021/10/07 01:13:43;;;;;;;;;;;23.50;44.40;;;;;;1571479;75;743;-70
2021/10/07 01:15:45;;;;;;;;;;;23.50;44.40;;;;;;1576276;75;872;-70
2021/10/07 01:17:47;;;;;;;;;;;23.50;44.40;;;;;;1582792;74;1155;-70
2021/10/07 01:19:49;;;;;;;;;;;23.50;44.40;;;;;;1580669;74;782;-70
2021/10/07 01:21:51;;;;;;;;;;;23.50;44.40;;;;;;1580852;74;788;-70
2021/10/07 01:23:53;;;;;;;;;;;23.50;44.30;;;;;;1584670;74;720;-70
2021/10/07 01:25:55;;;;;;;;;;;23.50;44.40;;;;;;1583732;75;771;-70
2021/10/07 01:27:57;;;;;;;;;;;23.40;44.30;;;;;;1583199;74;1170;-70
2021/10/07 01:29:59;;;;;;;;;;;23.50;44.40;;;;;;1583666;74;741;-70
2021/10/07 01:32:02;;;;;;;;;;;23.40;44.30;;;;;;1576187;74;1953;-70
2021/10/07 01:34:03;;;;;;;;;;;23.40;44.40;;;;;;1583183;74;730;-70
2021/10/07 01:36:05;;;;;;;;;;;23.40;44.40;;;;;;1583200;74;1146;-71
2021/10/07 01:38:07;;;;;;;;;;;23.50;44.50;;;;;;1579930;74;700;-71
2021/10/07 01:40:11;;;;;;;;;;;23.40;44.40;;;;;;1577499;74;706;-70
2021/10/07 01:42:13;;;;;;;;;;;23.40;44.40;;;;;;1584785;74;698;-70
2021/10/07 01:44:15;;;;;;;;;;;23.40;44.40;;;;;;1585603;74;737;-70
2021/10/07 01:46:18;;;;;;;;;;;23.50;44.50;;;;;;1553124;75;1083;-70
2021/10/07 01:48:20;;;;;;;;;;;23.40;44.40;;;;;;1584239;74;779;-71
2021/10/07 01:50:22;;;;;;;;;;;23.50;44.60;;;;;;1582771;74;770;-70
2021/10/07 01:52:24;;;;;;;;;;;23.40;44.40;;;;;;1584547;74;1953;-70
2021/10/07 01:54:26;;;;;;;;;;;23.40;44.50;;;;;;1580421;74;805;-70
2021/10/07 01:56:28;;;;;;;;;;;23.40;44.40;;;;;;1578680;74;1145;-70
2021/10/07 01:58:29;;;;;;;;;;;23.40;44.50;;;;;;1572218;74;762;-69
2021/10/07 02:00:31;;;;;;;;;;;23.40;44.40;;;;;;1572082;74;733;-69
2021/10/07 02:02:33;;;;;;;;;;;23.40;44.50;;;;;;1581734;74;750;-70
2021/10/07 02:04:35;;;;;;;;;;;23.50;44.70;;;;;;1579786;74;681;-70
2021/10/07 02:06:37;;;;;;;;;;;23.40;44.60;;;;;;1577408;73;1167;-70
2021/10/07 02:08:39;;;;;;;;;;;23.40;44.60;;;;;;1583536;74;713;-70
2021/10/07 02:10:41;;;;;;;;;;;23.30;44.70;;;;;;1588368;74;707;-69
2021/10/07 02:12:44;;;;;;;;;;;23.40;44.70;;;;;;1577957;74;1947;-72
2021/10/07 02:14:46;;;;;;;;;;;23.40;44.70;;;;;;1580943;74;722;-73
2021/10/07 02:16:48;;;;;;;;;;;23.50;44.90;;;;;;1581011;74;1206;-72
2021/10/07 02:18:50;;;;;;;;;;;23.40;44.80;;;;;;1580268;74;779;-72
2021/10/07 02:20:52;;;;;;;;;;;23.40;44.70;;;;;;1581707;75;741;-72
2021/10/07 02:22:53;;;;;;;;;;;23.40;44.80;;;;;;1585716;74;796;-73
2021/10/07 02:24:55;;;;;;;;;;;23.40;44.90;;;;;;1587585;74;783;-75
2021/10/07 02:26:57;;;;;;;;;;;23.40;44.90;;;;;;1581580;74;1115;-73
2021/10/07 02:28:59;;;;;;;;;;;23.40;44.90;;;;;;1559219;74;703;-72
2021/10/07 02:31:01;;;;;;;;;;;23.40;44.90;;;;;;1569334;74;741;-72
2021/10/07 02:33:03;;;;;;;;;;;23.40;44.90;;;;;;1586246;74;1946;-74
2021/10/07 02:35:05;;;;;;;;;;;23.50;45.00;;;;;;1594672;74;771;-70
2021/10/07 02:37:07;;;;;;;;;;;23.50;45.00;;;;;;1584260;74;1155;-70
2021/10/07 02:39:09;;;;;;;;;;;23.50;45.00;;;;;;1545790;74;711;-70
2021/10/07 02:41:10;;;;;;;;;;;23.50;44.90;;;;;;1582008;74;714;-70
2021/10/07 02:43:12;;;;;;;;;;;23.60;44.80;;;;;;1566629;74;756;-71
2021/10/07 02:45:15;;;;;;;;;;;23.70;44.70;;;;;;1589826;74;724;-71
2021/10/07 02:47:17;;;;;;;;;;;23.90;44.60;;;;;;1573635;74;1075;-70
2021/10/07 02:49:18;;;;;;;;;;;23.90;44.50;;;;;;1583808;74;723;-72
2021/10/07 02:51:20;;;;;;;;;;;23.80;44.40;;;;;;1589327;74;657;-69
2021/10/07 02:53:22;;;;;;;;;;;23.80;44.60;;;;;;1549298;74;1922;-70
2021/10/07 02:55:24;;;;;;;;;;;23.60;44.70;;;;;;1567864;74;658;-71
2021/10/07 02:57:26;;;;;;;;;;;23.60;45.00;;;;;;1554420;74;1218;-69
2021/10/07 02:59:28;;;;;;;;;;;23.60;45.00;;;;;;1575540;74;773;-70
2021/10/07 03:01:30;;;;;;;;;;;23.50;45.20;;;;;;1578727;74;941;-70
2021/10/07 03:03:32;;;;;;;;;;;23.50;45.40;;;;;;1573542;74;716;-70
2021/10/07 03:05:34;;;;;;;;;;;23.50;45.50;;;;;;1583042;74;774;-70
2021/10/07 03:07:36;;;;;;;;;;;23.50;45.60;;;;;;1560617;75;1145;-70
2021/10/07 03:09:38;;;;;;;;;;;23.50;45.70;;;;;;1559501;74;799;-70
2021/10/07 03:11:40;;;;;;;;;;;23.50;45.80;;;;;;1557896;75;717;-69
2021/10/07 03:13:42;;;;;;;;;;;23.50;45.80;;;;;;1571882;74;1921;-69
2021/10/07 03:15:44;;;;;;;;;;;23.50;45.80;;;;;;1571442;75;848;-69
2021/10/07 03:17:46;;;;;;;;;;;23.50;45.90;;;;;;1557794;74;1164;-71
2021/10/07 03:19:48;;;;;;;;;;;23.50;45.90;;;;;;1588261;74;786;-72
2021/10/07 03:21:50;;;;;;;;;;;23.40;45.80;;;;;;1556353;74;744;-71
2021/10/07 03:23:52;;;;;;;;;;;23.50;46.00;;;;;;1556576;74;962;-71
2021/10/07 03:25:53;;;;;;;;;;;23.50;46.00;;;;;;1569199;75;734;-71
2021/10/07 03:27:55;;;;;;;;;;;23.50;46.00;;;;;;1570845;74;1076;-71
2021/10/07 03:29:57;;;;;;;;;;;23.50;46.00;;;;;;1583854;74;1101;-71
2021/10/07 03:31:59;;;;;;;;;;;23.50;46.00;;;;;;1570676;75;824;-72
2021/10/07 03:34:01;;;;;;;;;;;23.50;46.00;;;;;;1567802;75;1933;-71
2021/10/07 03:36:03;;;;;;;;;;;23.60;46.00;;;;;;1564413;74;1135;-72
2021/10/07 03:38:05;;;;;;;;;;;23.50;45.90;;;;;;1562848;74;694;-70
2021/10/07 03:40:08;;;;;;;;;;;23.50;46.00;;;;;;1563238;74;824;-70
2021/10/07 03:42:10;;;;;;;;;;;23.50;46.00;;;;;;1589335;74;725;-70
2021/10/07 03:44:12;;;;;;;;;;;23.60;45.90;;;;;;1550933;74;702;-70
2021/10/07 03:46:14;;;;;;;;;;;23.50;46.00;;;;;;1587573;74;1157;-70
2021/10/07 03:48:16;;;;;;;;;;;23.60;46.00;;;;;;1570239;75;788;-69
2021/10/07 03:50:18;;;;;;;;;;;23.50;45.90;;;;;;1564240;74;773;-70
2021/10/07 03:52:20;;;;;;;;;;;23.60;45.80;;;;;;1577949;74;1945;-69
2021/10/07 03:54:21;;;;;;;;;;;23.60;45.90;;;;;;1589911;74;702;-69
2021/10/07 03:56:23;;;;;;;;;;;23.60;45.80;;;;;;1582121;73;1157;-70
2021/10/07 03:58:25;;;;;;;;;;;23.70;45.80;;;;;;1563107;75;704;-69
2021/10/07 04:00:27;;;;;;;;;;;23.60;45.50;;;;;;1569091;74;741;-69
2021/10/07 04:02:29;;;;;;;;;;;23.80;45.50;;;;;;1571675;74;823;-70
2021/10/07 04:04:31;;;;;;;;;;;23.80;45.50;;;;;;1589011;74;702;-70
2021/10/07 04:06:33;;;;;;;;;;;23.90;45.10;;;;;;1567518;74;1149;-69
2021/10/07 04:08:35;;;;;;;;;;;23.90;44.90;;;;;;1571833;74;806;-70
2021/10/07 04:10:37;;;;;;;;;;;24.00;44.70;;;;;;1585118;74;774;-69
2021/10/07 04:12:38;;;;;;;;;;;24.20;44.70;;;;;;1582561;74;1938;-68
2021/10/07 04:14:40;;;;;;;;;;;24.10;44.50;;;;;;1562659;75;720;-68
2021/10/07 04:16:42;;;;;;;;;;;24.20;44.40;;;;;;1558474;74;1193;-69
2021/10/07 04:18:44;;;;;;;;;;;24.20;44.40;;;;;;1563754;75;765;-69
2021/10/07 04:20:47;;;;;;;;;;;24.20;44.30;;;;;;1583445;74;722;-69
2021/10/07 04:22:49;;;;;;;;;;;24.30;44.30;;;;;;1582989;74;708;-68
2021/10/07 04:24:51;;;;;;;;;;;24.30;44.30;;;;;;1557063;74;771;-69
2021/10/07 04:26:53;;;;;;;;;;;24.30;44.20;;;;;;1579966;73;1134;-68
2021/10/07 04:28:55;;;;;;;;;;;24.30;44.20;;;;;;1568719;74;794;-68
2021/10/07 04:30:57;;;;;;;;;;;24.30;44.10;;;;;;1583605;74;753;-69
2021/10/07 04:32:59;;;;;;;;;;;24.30;44.10;;;;;;1563922;74;1937;-68
2021/10/07 04:35:01;;;;;;;;;;;24.30;44.10;;;;;;1571567;74;595;-68
2021/10/07 04:37:03;;;;;;;;;;;24.30;44.00;;;;;;1584460;74;1144;-70
2021/10/07 04:39:04;;;;;;;;;;;24.30;44.00;;;;;;1584188;74;785;-69
2021/10/07 04:41:06;;;;;;;;;;;24.30;44.10;;;;;;1585527;74;805;-67
2021/10/07 04:43:08;;;;;;;;;;;24.30;44.20;;;;;;1565409;75;717;-68
2021/10/07 04:45:10;;;;;;;;;;;24.30;44.30;;;;;;1552660;74;727;-65
2021/10/07 04:47:12;;;;;;;;;;;24.20;44.60;;;;;;1565528;74;1144;-66
2021/10/07 04:49:14;;;;;;;;;;;24.20;44.40;;;;;;1580288;74;644;-66
2021/10/07 04:51:16;;;;;;;;;;;24.20;44.40;;;;;;1569486;74;723;-64
2021/10/07 04:53:18;;;;;;;;;;;24.20;44.40;;;;;;1546830;75;1939;-66
2021/10/07 04:55:19;;;;;;;;;;;24.10;44.60;;;;;;1577097;74;780;-65
2021/10/07 04:57:21;;;;;;;;;;;24.10;44.70;;;;;;1559023;74;1100;-64
2021/10/07 04:59:23;;;;;;;;;;;24.20;44.70;;;;;;1585126;74;779;-64
2021/10/07 05:01:25;;;;;;;;;;;24.10;44.70;;;;;;1562647;74;742;-65
2021/10/07 05:03:27;;;;;;;;;;;24.20;44.70;;;;;;1551492;74;780;-65
2021/10/07 05:05:29;;;;;;;;;;;24.20;44.70;;;;;;1582878;74;801;-64
2021/10/07 05:07:31;;;;;;;;;;;24.10;44.60;;;;;;1586669;74;1130;-65
2021/10/07 05:09:33;;;;;;;;;;;24.20;44.60;;;;;;1562845;74;802;-65
2021/10/07 05:11:35;;;;;;;;;;;24.10;44.70;;;;;;1583787;74;833;-69
2021/10/07 05:13:37;;;;;;;;;;;24.10;44.60;;;;;;1574915;74;1949;-65
2021/10/07 05:15:39;;;;;;;;;;;24.20;44.70;;;;;;1575476;74;800;-65
2021/10/07 05:17:40;;;;;;;;;;;24.20;44.70;;;;;;1578678;73;1144;-65
2021/10/07 05:19:42;;;;;;;;;;;24.20;44.40;;;;;;1565790;74;747;-66
2021/10/07 05:21:44;;;;;;;;;;;24.30;44.30;;;;;;1561864;74;813;-65
2021/10/07 05:23:46;;;;;;;;;;;24.20;44.00;;;;;;1583634;74;702;-65
2021/10/07 05:25:48;;;;;;;;;;;24.10;44.00;;;;;;1560272;74;880;-66
2021/10/07 05:27:50;;;;;;;;;;;24.20;43.90;;;;;;1578549;74;1106;-65
2021/10/07 05:29:52;;;;;;;;;;;24.20;44.10;;;;;;1579842;74;790;-67
2021/10/07 05:31:53;;;;;;;;;;;24.20;43.90;;;;;;1558449;74;757;-67
2021/10/07 05:33:55;;;;;;;;;;;24.20;43.80;;;;;;1565896;74;2072;-66
2021/10/07 05:35:57;;;;;;;;;;;24.20;43.70;;;;;;1578311;75;789;-65
2021/10/07 05:37:59;;;;;;;;;;;24.20;43.60;;;;;;1568507;74;1167;-66
2021/10/07 05:40:01;;;;;;;;;;;24.10;43.60;;;;;;1561295;74;817;-66
2021/10/07 05:42:03;;;;;;;;;;;24.10;43.60;;;;;;1565548;74;718;-66
2021/10/07 05:44:10;;;;;;;;;;;24.00;43.40;;;;;;1581071;74;797;-66
2021/10/07 05:46:09;;;;;;;;;;;24.00;43.40;;;;;;1584139;74;1633;-63
2021/10/07 05:48:10;;;;;;;;;;;24.00;43.30;;;;;;1549265;75;763;-67
2021/10/07 05:50:12;;;;;;;;;;;24.00;43.40;;;;;;1565321;74;748;-66
2021/10/07 05:52:14;;;;;;;;;;;24.00;43.40;;;;;;1587326;74;782;-66
2021/10/07 05:54:17;;;;;;;;;;;23.90;43.40;;;;;;1567637;74;1932;-65
2021/10/07 05:56:19;;;;;;;;;;;24.00;43.40;;;;;;1558136;74;1127;-66
2021/10/07 05:58:21;;;;;;;;;;;23.90;43.40;;;;;;1593868;74;794;-66
2021/10/07 06:00:23;;;;;;;;;;;23.90;43.40;;;;;;1564804;74;832;-65
2021/10/07 06:02:24;;;;;;;;;;;23.90;43.40;;;;;;1570665;74;810;-66
2021/10/07 06:04:26;;;;;;;;;;;23.90;43.40;;;;;;1581180;74;715;-66
2021/10/07 06:06:28;;;;;;;;;;;23.80;43.30;;;;;;1550921;74;1153;-66
2021/10/07 06:08:30;;;;;;;;;;;23.80;43.40;;;;;;1583635;74;795;-67
2021/10/07 06:10:32;;;;;;;;;;;23.80;43.40;;;;;;1576909;75;786;-66
2021/10/07 06:12:34;;;;;;;;;;;23.70;43.40;;;;;;1583637;74;797;-66
2021/10/07 06:14:36;;;;;;;;;;;23.70;43.40;;;;;;1582032;74;1937;-65
2021/10/07 06:16:40;;;;;;;;;;;23.80;43.40;;;;;;1584467;74;1165;-66
2021/10/07 06:18:42;;;;;;;;;;;23.70;43.40;;;;;;1583730;74;909;-66
2021/10/07 06:20:44;;;;;;;;;;;23.70;43.50;;;;;;1576603;74;725;-66
2021/10/07 06:22:48;;;;;;;;;;;23.80;43.50;;;;;;1581579;74;709;-66
2021/10/07 06:24:50;;;;;;;;;;;23.70;43.50;;;;;;1581660;75;1023;-66
2021/10/07 06:26:52;;;;;;;;;;;23.70;43.60;;;;;;1583387;74;1128;-66
2021/10/07 06:28:53;;;;;;;;;;;23.70;43.60;;;;;;1581033;74;721;-66
2021/10/07 06:30:55;;;;;;;;;;;23.70;43.60;;;;;;1581681;74;760;-67
2021/10/07 06:32:58;;;;;;;;;;;23.70;43.60;;;;;;1579799;74;794;-66
2021/10/07 06:35:00;;;;;;;;;;;23.70;43.60;;;;;;1584471;74;1913;-66
2021/10/07 06:37:02;;;;;;;;;;;23.70;43.60;;;;;;1584951;73;1090;-66
2021/10/07 06:39:05;;;;;;;;;;;23.70;43.70;;;;;;1581802;74;633;-66
2021/10/07 06:41:07;;;;;;;;;;;23.70;43.70;;;;;;1584013;74;708;-66
2021/10/07 06:43:08;;;;;;;;;;;23.80;43.70;;;;;;1577636;74;689;-67
2021/10/07 06:45:10;;;;;;;;;;;23.80;43.70;;;;;;1584451;74;777;-65
2021/10/07 06:47:12;;;;;;;;;;;23.70;43.70;;;;;;1585313;74;1183;-66
2021/10/07 06:49:14;;;;;;;;;;;23.70;43.60;;;;;;1581212;74;737;-66
2021/10/07 06:51:16;;;;;;;;;;;23.70;43.60;;;;;;1583538;74;790;-66
2021/10/07 06:53:18;;;;;;;;;;;23.70;43.60;;;;;;1582997;74;749;-66
2021/10/07 06:55:21;;;;;;;;;;;23.70;43.60;;;;;;1577877;74;1945;-65
2021/10/07 06:57:23;;;;;;;;;;;23.80;43.60;;;;;;1580813;74;1185;-65
2021/10/07 06:59:25;;;;;;;;;;;23.80;43.50;;;;;;1578981;74;800;-65
2021/10/07 07:01:27;;;;;;;;;;;23.80;43.50;;;;;;1578068;74;778;-65
2021/10/07 07:03:29;;;;;;;;;;;23.80;43.50;;;;;;1578360;75;783;-65
2021/10/07 07:05:31;;;;;;;;;;;23.90;43.70;;;;;;1571353;74;784;-66
2021/10/07 07:07:33;;;;;;;;;;;24.00;43.50;;;;;;1591030;72;225625;-55
2021/10/07 07:09:35;;;;;;;;;;;24.00;43.40;;;;;;1593229;74;868;-57
2021/10/07 07:11:37;;;;;;;;;;;24.10;43.40;;;;;;1606379;74;773;-56
2021/10/07 07:13:39;;;;;;;;;;;24.10;43.20;;;;;;1602433;74;1931;-56
2021/10/07 07:15:41;;;;;;;;;;;24.20;43.10;;;;;;1579447;72;1137;-54
2021/10/07 07:17:43;;;;;;;;;;;24.20;43.10;;;;;;1587634;73;645;-55
2021/10/07 07:19:44;;;;;;;;;;;24.30;43.10;;;;;;1598607;73;724;-57
2021/10/07 07:21:46;;;;;;;;;;;24.20;42.90;;;;;;1596960;73;661;-54
2021/10/07 07:23:51;;;;;;;;;;;24.30;43.10;;;;;;1586662;73;634;-57
2021/10/07 07:25:52;;;;;;;;;;;24.20;43.10;;;;;;1604418;73;1600;-54
2021/10/07 07:27:54;;;;;;;;;;;24.20;43.10;;;;;;1581438;73;559;-55
2021/10/07 07:29:55;;;;;;;;;;;24.20;43.20;;;;;;1592578;73;653;-53
2021/10/07 07:31:57;;;;;;;;;;;24.20;43.30;;;;;;1589041;73;725;-54
2021/10/07 07:34:01;;;;;;;;;;;24.10;43.40;;;;;;1600160;73;1925;-54
2021/10/07 07:36:03;;;;;;;;;;;24.10;43.50;;;;;;1577977;73;786;-56
2021/10/07 07:38:05;;;;;;;;;;;24.10;43.50;;;;;;1604860;73;668;-56
2021/10/07 07:40:07;;;;;;;;;;;24.10;43.50;;;;;;1602070;73;726;-55
2021/10/07 07:42:09;;;;;;;;;;;24.10;43.60;;;;;;1581396;73;856;-54
2021/10/07 07:44:11;;;;;;;;;;;24.00;43.50;;;;;;1614562;73;1112;-54
2021/10/07 07:46:13;;;;;;;;;;;24.10;43.80;;;;;;1610330;73;649;-54
2021/10/07 07:48:15;;;;;;;;;;;24.00;43.70;;;;;;1572195;73;768;-54
2021/10/07 07:50:18;;;;;;;;;;;24.00;43.90;;;;;;1575453;73;766;-53
2021/10/07 07:52:22;;;;;;;;;;;24.00;43.90;;;;;;1606603;73;949;-55
2021/10/07 07:54:24;;;;;;;;;;;24.00;43.90;;;;;;1591461;73;1940;-54
2021/10/07 07:56:26;;;;;;;;;;;24.00;44.00;;;;;;1586961;73;709;-54
2021/10/07 07:58:28;;;;;;;;;;;23.90;43.90;;;;;;1618424;73;680;-54
2021/10/07 08:00:29;;;;;;;;;;;23.90;44.10;;;;;;1592935;73;774;-54
2021/10/07 08:02:31;;;;;;;;;;;23.90;44.10;;;;;;1580954;73;718;-55
2021/10/07 08:04:33;;;;;;;;;;;23.90;44.20;;;;;;1577795;73;1086;-56
2021/10/07 08:06:35;;;;;;;;;;;23.90;44.20;;;;;;1575040;73;710;-56
2021/10/07 08:08:37;;;;;;;;;;;23.90;44.20;;;;;;1602290;73;798;-56
2021/10/07 08:10:39;;;;;;;;;;;23.90;44.20;;;;;;1595204;73;729;-54
2021/10/07 08:12:41;;;;;;;;;;;23.90;44.20;;;;;;1581283;73;711;-54
2021/10/07 08:14:47;;;;;;;;;;;23.80;44.20;;;;;;1578209;73;1940;-54
2021/10/07 08:16:48;;;;;;;;;;;23.80;44.20;;;;;;1561619;75;698;-56
2021/10/07 08:18:50;;;;;;;;;;;23.80;44.20;;;;;;1566502;75;791;-56
2021/10/07 08:20:53;;;;;;;;;;;23.80;44.30;;;;;;1562999;75;733;-56
2021/10/07 08:22:55;;;;;;;;;;;23.80;44.20;;;;;;1557648;75;707;-56
2021/10/07 08:24:57;;;;;;;;;;;23.80;44.30;;;;;;1564182;75;1129;-55
2021/10/07 08:26:59;;;;;;;;;;;23.70;44.30;;;;;;1562363;75;735;-56
2021/10/07 08:29:01;;;;;;;;;;;23.80;44.30;;;;;;1568034;75;702;-56
2021/10/07 08:31:03;;;;;;;;;;;23.70;44.30;;;;;;1561358;75;714;-56
2021/10/07 08:33:04;;;;;;;;;;;23.70;44.30;;;;;;1564187;75;702;-56
2021/10/07 08:35:06;;;;;;;;;;;23.70;44.40;;;;;;1565415;74;1942;-56
2021/10/07 08:37:08;;;;;;;;;;;23.70;44.40;;;;;;1563644;75;686;-56
2021/10/07 08:39:11;;;;;;;;;;;23.70;44.40;;;;;;1568927;75;679;-58
2021/10/07 08:41:13;;;;;;;;;;;23.70;44.40;;;;;;1573151;75;739;-57
2021/10/07 08:43:15;;;;;;;;;;;23.70;44.40;;;;;;1567901;75;718;-58
2021/10/07 08:45:17;;;;;;;;;;;23.60;44.40;;;;;;1560485;75;1106;-58
2021/10/07 08:47:19;;;;;;;;;;;23.70;44.50;;;;;;1563965;75;680;-57
2021/10/07 08:49:23;;;;;;;;;;;23.60;44.30;;;;;;1569200;75;848;-58
2021/10/07 08:51:25;;;;;;;;;;;23.80;44.50;;;;;;1561284;75;711;-58
2021/10/07 08:53:28;;;;;;;;;;;23.60;44.30;;;;;;1565454;75;790;-57
2021/10/07 08:55:30;;;;;;;;;;;23.70;44.50;;;;;;1569524;75;1936;-58
2021/10/07 08:57:32;;;;;;;;;;;23.60;44.40;;;;;;1565211;75;712;-59
2021/10/07 08:59:35;;;;;;;;;;;23.60;44.40;;;;;;1555984;75;658;-57
2021/10/07 09:01:41;;;;;;;;;;;23.80;44.40;;;;;;1562070;75;828;-55
2021/10/07 09:03:43;;;;;;;;;;;23.70;44.40;;;;;;1555908;75;1021;-58
2021/10/07 09:05:45;;;;;;;;;;;23.60;44.20;;;;;;1561917;75;1077;-58
2021/10/07 09:07:58;;;;;;;;;;;23.60;44.10;;;;;;1603574;73;787;-58
2021/10/07 09:10:00;;;;;;;;;;;23.70;44.20;;;;;;1553682;75;603;-55
2021/10/07 09:12:03;;;;;;;;;;;23.70;44.10;;;;;;1573928;73;726;-57
2021/10/07 09:14:05;;;;;;;;;;;23.70;44.00;;;;;;1576070;73;1122;-57
2021/10/07 09:16:07;;;;;;;;;;;23.70;44.00;;;;;;1586056;73;1927;-57
2021/10/07 09:18:09;;;;;;;;;;;23.70;44.00;;;;;;1599377;73;718;-57
2021/10/07 09:20:11;;;;;;;;;;;23.60;43.80;;;;;;1594992;73;707;-54
2021/10/07 09:22:17;;;;;;;;;;;23.60;43.80;;;;;;1546017;76;1256;-56
2021/10/07 09:24:35;;;;;;;;;;;23.70;43.90;;;;;;1577878;75;1081;-57
2021/10/07 09:26:37;;;;;;;;;;;23.70;43.90;;;;;;1564949;75;720;-57
2021/10/07 09:28:50;;;;;;;;;;;23.70;43.80;;;;;;1577245;75;718;-56
2021/10/07 09:30:56;;;;;;;;;;;23.70;43.80;;;;;;1573277;75;693;-57
2021/10/07 09:33:00;;;;;;;;;;;23.70;43.70;;;;;;1575937;75;1795;-57
2021/10/07 09:35:03;;;;;;;;;;;23.70;43.80;;;;;;1578737;75;1945;-56
2021/10/07 09:37:18;;;;;;;;;;;23.70;43.70;;;;;;1581753;75;719;-55
2021/10/07 09:39:20;;;;;;;;;;;23.70;43.70;;;;;;1575530;75;666;-55
2021/10/07 09:41:23;;;;;;;;;;;23.70;43.60;;;;;;1576115;75;747;-55
2021/10/07 09:43:25;;;;;;;;;;;23.70;43.60;;;;;;1594403;73;1680;-57
2021/10/07 09:45:28;;;;;;;;;;;23.70;43.70;;;;;;1598379;73;1162;-57
2021/10/07 09:47:30;;;;;;;;;;;23.80;43.60;;;;;;1559427;75;705;-57
2021/10/07 09:49:33;;;;;;;;;;;23.70;43.60;;;;;;1558179;75;718;-55
2021/10/07 09:51:39;;;;;;;;;;;23.70;43.60;;;;;;1569288;75;720;-57
2021/10/07 09:53:44;;;;;;;;;;;23.70;43.60;;;;;;1560695;75;781;-57
2021/10/07 09:55:51;;;;;;;;;;;23.80;43.60;;;;;;1602692;73;1929;-54
2021/10/07 09:57:52;;;;;;;;;;;23.80;43.50;;;;;;1559743;75;1148;-56
2021/10/07 09:59:55;;;;;;;;;;;23.80;43.40;;;;;;1565179;75;715;-56
2021/10/07 10:01:57;;;;;;;;;;;23.80;43.50;;;;;;1567727;73;998;-56
2021/10/07 10:03:59;;;;;;;;;;;23.80;43.40;;;;;;1594775;73;1253;-56
2021/10/07 10:06:01;;;;;;;;;;;23.80;43.40;;;;;;1590033;73;715;-56
2021/10/07 10:08:03;;;;;;;;;;;23.80;43.40;;;;;;1593333;73;711;-58
2021/10/07 10:10:06;;;;;;;;;;;23.80;43.30;;;;;;1594158;73;791;-55
2021/10/07 10:12:07;;;;;;;;;;;23.80;43.30;;;;;;1594302;73;714;-55
2021/10/07 10:14:10;;;;;;;;;;;23.80;43.30;;;;;;1594906;73;1131;-58
2021/10/07 10:16:11;;;;;;;;;;;23.80;43.30;;;;;;1594441;73;1933;-58
2021/10/07 10:18:14;;;;;;;;;;;23.70;43.30;;;;;;1585900;73;722;-57
2021/10/07 10:20:23;;;;;;;;;;;23.70;43.30;;;;;;1595536;73;713;-58
2021/10/07 10:22:25;;;;;;;;;;;23.80;43.30;;;;;;1577971;75;926;-57
2021/10/07 10:24:27;;;;;;;;;;;23.80;43.30;;;;;;1566555;75;1144;-56
2021/10/07 10:26:29;;;;;;;;;;;23.70;43.30;;;;;;1559336;75;654;-57
2021/10/07 10:28:35;;;;;;;;;;;23.80;43.40;;;;;;1576012;75;723;-57
2021/10/07 10:30:44;;;;;;;;;;;23.80;43.30;;;;;;1581073;75;1041;-58
2021/10/07 10:32:45;;;;;;;;;;;23.80;43.30;;;;;;1577233;75;1567;-59
2021/10/07 10:34:47;;;;;;;;;;;23.90;43.30;;;;;;1578865;74;1946;-57
2021/10/07 10:36:56;;;;;;;;;;;23.90;43.20;;;;;;1580542;75;756;-57
2021/10/07 10:39:02;;;;;;;;;;;23.90;43.10;;;;;;1580135;75;809;-58
2021/10/07 10:41:10;;;;;;;;;;;23.90;43.10;;;;;;1577223;75;693;-60
2021/10/07 10:43:19;;;;;;;;;;;24.00;43.10;;;;;;1579766;75;728;-58
2021/10/07 10:45:21;;;;;;;;;;;24.00;43.00;;;;;;1575856;75;1156;-58
2021/10/07 10:47:24;;;;;;;;;;;24.00;43.00;;;;;;1599937;73;688;-58
2021/10/07 10:49:36;;;;;;;;;;;24.00;43.00;;;;;;1604734;73;761;-58
2021/10/07 10:51:38;;;;;;;;;;;24.00;43.00;;;;;;1601795;73;698;-58
2021/10/07 10:53:58;;;;;;;;;;;24.00;42.90;;;;;;1599673;73;744;-57
2021/10/07 10:56:00;;;;;;;;;;;24.00;42.80;;;;;;1602699;73;1933;-58
2021/10/07 10:58:06;;;;;;;;;;;24.10;42.90;;;;;;1607732;73;647;-57
2021/10/07 11:00:15;;;;;;;;;;;24.10;42.90;;;;;;1605424;73;721;-57
2021/10/07 11:02:19;;;;;;;;;;;24.00;42.70;;;;;;1600661;73;817;-57
2021/10/07 11:04:39;;;;;;;;;;;24.10;42.80;;;;;;1607546;73;1130;-60
2021/10/07 11:06:59;;;;;;;;;;;24.10;42.90;;;;;;1591718;74;767;-58
2021/10/07 11:09:01;;;;;;;;;;;24.00;42.80;;;;;;1591248;74;767;-57
2021/10/07 11:11:04;;;;;;;;;;;24.00;42.80;;;;;;1586172;74;636;-57
2021/10/07 11:13:07;;;;;;;;;;;24.10;42.90;;;;;;1589839;74;778;-58
2021/10/07 11:15:10;;;;;;;;;;;24.10;42.80;;;;;;1552486;75;1952;-58
2021/10/07 11:17:11;;;;;;;;;;;24.10;42.80;;;;;;1592329;74;726;-59
2021/10/07 11:19:13;;;;;;;;;;;24.10;42.70;;;;;;1592135;74;813;-58
2021/10/07 11:21:17;;;;;;;;;;;24.00;42.60;;;;;;1590910;74;820;-58
2021/10/07 11:23:19;;;;;;;;;;;24.10;42.80;;;;;;1586653;74;1034;-58
2021/10/07 11:25:21;;;;;;;;;;;24.00;42.50;;;;;;1592300;73;1127;-57
2021/10/07 11:27:33;;;;;;;;;;;24.10;42.70;;;;;;1587489;74;790;-57
2021/10/07 11:29:35;;;;;;;;;;;24.10;42.60;;;;;;1591910;74;773;-58
2021/10/07 11:31:37;;;;;;;;;;;24.10;42.60;;;;;;1585624;74;751;-60
2021/10/07 11:33:40;;;;;;;;;;;24.00;42.50;;;;;;1558790;74;1026;-58
2021/10/07 11:35:42;;;;;;;;;;;24.00;42.50;;;;;;1589050;74;1943;-57
2021/10/07 11:37:56;;;;;;;;;;;24.10;42.60;;;;;;1592825;74;710;-57
2021/10/07 11:40:19;;;;;;;;;;;24.00;42.40;;;;;;1592493;74;762;-57
2021/10/07 11:42:38;;;;;;;;;;;24.10;42.60;;;;;;1556628;76;1070;-57
2021/10/07 11:44:46;;;;;;;;;;;24.00;42.50;;;;;;1556228;75;1104;-58
2021/10/07 11:46:48;;;;;;;;;;;24.00;42.50;;;;;;1556673;76;845;-58
2021/10/07 11:48:51;;;;;;;;;;;24.00;42.40;;;;;;1559325;76;1018;-59
2021/10/07 11:50:54;;;;;;;;;;;24.10;42.60;;;;;;1589138;74;717;-57
2021/10/07 11:52:56;;;;;;;;;;;24.10;42.60;;;;;;1591389;74;886;-60
2021/10/07 11:54:58;;;;;;;;;;;24.10;42.60;;;;;;1590720;74;1129;-60
2021/10/07 11:57:00;;;;;;;;;;;24.00;42.40;;;;;;1591129;74;1933;-57
2021/10/07 11:59:03;;;;;;;;;;;24.00;42.50;;;;;;1585491;74;713;-59
2021/10/07 12:01:05;;;;;;;;;;;24.00;42.50;;;;;;1591170;74;814;-58
2021/10/07 12:03:08;;;;;;;;;;;24.00;42.50;;;;;;1588341;74;678;-57
2021/10/07 12:05:18;;;;;;;;;;;24.00;42.50;;;;;;1567637;74;1133;-58
2021/10/07 12:07:19;;;;;;;;;;;24.00;42.50;;;;;;1572359;74;1559;-57
2021/10/07 12:09:21;;;;;;;;;;;23.90;42.50;;;;;;1580732;74;717;-58
2021/10/07 12:11:24;;;;;;;;;;;23.90;42.60;;;;;;1572079;74;805;-58
2021/10/07 12:13:27;;;;;;;;;;;23.80;42.50;;;;;;1578517;74;688;-58